68houraimaru — JJ3837 — position and weather

sailwx.info

Track history (hours):
 
Tides and Currents Weather Stations Pressure Air Temp Water Temp Dewpoint Dewpoint Depression Visibility Wind Speed Wind Dir Waves Ship Positions

68houraimaru

Last reported at 2017-Nov-20 00:30 UTC. Time now 2017-Nov-20 12:03 UTC.
Position N 35°05' E 139°40'.

Length 65 m.

Type: Cargo ship. MMSI: 431300447.

Date/timePositionNaut miles runAvg speedWind from/ knotsBaromVisibWave heightAir tempDewpointWater temp
2017-Nov-20 00:30N 35°05' E 139°40'510.8
2017-Nov-20 00:00N 35°10' E 139°43'4 6.0
2017-Nov-19 23:24N 35°14' E 139°43'0 0.0
2017-Nov-19 22:54N 35°14' E 139°43'0 0.0
2017-Nov-19 22:30N 35°14' E 139°43'0 0.0
2017-Nov-19 22:00N 35°14' E 139°43'0 0.0
2017-Nov-19 21:24N 35°14' E 139°43'0 0.0
2017-Nov-19 20:54N 35°14' E 139°43'0 0.0
2017-Nov-19 20:30N 35°14' E 139°43'0 0.0
2017-Nov-19 20:00N 35°14' E 139°43'0 0.0
2017-Nov-19 19:30N 35°14' E 139°43'0 0.0
2017-Nov-19 19:00N 35°14' E 139°43'0 0.0
2017-Nov-19 18:30N 35°14' E 139°43'0 0.0
2017-Nov-19 17:36N 35°14' E 139°43'0 0.0
2017-Nov-19 17:18N 35°14' E 139°43'0 0.0
2017-Nov-19 17:00N 35°14' E 139°43'0 0.0
2017-Nov-19 16:24N 35°14' E 139°43'0 0.0
2017-Nov-19 16:00N 35°14' E 139°43'0 0.0
2017-Nov-19 15:30N 35°14' E 139°43'0 0.0
2017-Nov-19 14:42N 35°14' E 139°43'0 0.0
2017-Nov-19 14:30N 35°14' E 139°43'0 0.0
2017-Nov-19 14:00N 35°14' E 139°43'0 0.0
2017-Nov-19 13:30N 35°14' E 139°43'0 0.0
2017-Nov-19 12:54N 35°14' E 139°43'0 0.0
2017-Nov-19 12:24N 35°14' E 139°43'0 0.0
2017-Nov-19 12:00N 35°14' E 139°43'0 0.0
2017-Nov-19 11:30N 35°14' E 139°43'0 0.0
2017-Nov-19 11:00N 35°14' E 139°43'0 0.0
2017-Nov-19 10:30N 35°14' E 139°43'0 0.0
2017-Nov-19 10:00N 35°14' E 139°43'0 0.0
2017-Nov-19 09:30N 35°14' E 139°43'0 0.0
2017-Nov-19 09:00N 35°14' E 139°43'0 0.0
2017-Nov-19 08:30N 35°14' E 139°43'0 0.0
2017-Nov-19 08:00N 35°14' E 139°43'0 0.0
2017-Nov-19 07:30N 35°14' E 139°43'0 0.0
2017-Nov-19 06:54N 35°14' E 139°43'0 0.0
2017-Nov-19 06:30N 35°14' E 139°43'0 0.0
2017-Nov-19 06:00N 35°14' E 139°43'0 0.0
2017-Nov-19 05:30N 35°14' E 139°43'0 0.0
2017-Nov-19 04:54N 35°14' E 139°43'0 0.0
2017-Nov-19 04:30N 35°14' E 139°43'0 0.0
2017-Nov-19 03:54N 35°14' E 139°43'0 0.0
2017-Nov-19 03:24N 35°14' E 139°43'0 0.0
2017-Nov-19 03:00N 35°14' E 139°43'0 0.0
2017-Nov-19 02:24N 35°14' E 139°43'0 0.0
2017-Nov-19 01:54N 35°14' E 139°43'0 0.0
2017-Nov-19 01:30N 35°14' E 139°43'1 1.7
2017-Nov-19 00:47N 35°13' E 139°45'2 5.9
2017-Nov-19 00:28N 35°11' E 139°44'3 6.1
2017-Nov-18 23:57N 35°08' E 139°42'3 6.2
2017-Nov-18 23:29N 35°07' E 139°39'2 0.0
2017-Nov-17 13:37N 35°05' E 139°38'111.4
2017-Nov-17 13:30N 35°06' E 139°40'612.2
2017-Nov-17 13:00N 35°11' E 139°45'611.3
2017-Nov-17 12:29N 35°17' E 139°45'811.0
2017-Nov-17 11:44N 35°25' E 139°42'311.3
2017-Nov-17 11:30N 35°27' E 139°43'3 0.5
2017-Nov-17 05:45N 35°30' E 139°42'0 0.0
2017-Nov-17 05:30N 35°30' E 139°42'0 0.6
2017-Nov-17 04:59N 35°29' E 139°43'2 3.6
2017-Nov-17 04:27N 35°28' E 139°43'1 1.7
2017-Nov-17 03:53N 35°27' E 139°43'0 0.0
2017-Nov-17 03:14N 35°27' E 139°43'0 0.0
2017-Nov-17 02:41N 35°27' E 139°43'0 0.0
2017-Nov-17 01:14N 35°27' E 139°43'0 0.0
2017-Nov-17 00:59N 35°27' E 139°43'0 0.8
2017-Nov-17 00:30N 35°26' E 139°43'611.6
2017-Nov-16 23:59N 35°20' E 139°43'1110.8
2017-Nov-16 22:56N 35°09' E 139°46'512.2
2017-Nov-16 22:30N 35°04' E 139°43'611.9
2017-Nov-16 21:59N 34°60' E 139°37'4 0.1
2017-Nov-15 11:19N 35°04' E 139°37'310.3
2017-Nov-15 11:00N 35°06' E 139°40'611.0
2017-Nov-15 10:29N 35°11' E 139°45'611.4
2017-Nov-15 10:00N 35°16' E 139°46'1110.8
2017-Nov-15 08:58N 35°27' E 139°43'3 1.7
2017-Nov-15 06:57N 35°30' E 139°44'3 7.3
2017-Nov-15 06:30N 35°27' E 139°44'5 9.5
2017-Nov-15 05:59N 35°22' E 139°45'910.0
2017-Nov-15 05:06N 35°13' E 139°44'1 1.3
2017-Nov-15 04:42N 35°14' E 139°43'0 0.0
2017-Nov-15 04:30N 35°14' E 139°43'0 0.0
2017-Nov-15 03:54N 35°14' E 139°43'0 0.0
2017-Nov-15 03:18N 35°14' E 139°43'0 1.0
2017-Nov-15 02:55N 35°13' E 139°43'0 0.7
2017-Nov-15 02:28N 35°13' E 139°44'3 6.1
2017-Nov-15 02:00N 35°16' E 139°45'810.1
2017-Nov-15 01:15N 35°22' E 139°41'0 0.0
2017-Nov-15 00:48N 35°22' E 139°41'0 0.0
2017-Nov-15 00:18N 35°22' E 139°41'0 0.0
2017-Nov-14 23:51N 35°22' E 139°41'0 0.0
2017-Nov-14 22:12N 35°22' E 139°41'0 0.0
2017-Nov-14 21:34N 35°22' E 139°41'0 1.2
2017-Nov-14 21:31N 35°22' E 139°41'711.6
2017-Nov-14 20:56N 35°17' E 139°46'711.0
2017-Nov-14 20:19N 35°10' E 139°46'411.9
2017-Nov-14 20:00N 35°06' E 139°45'612.0
2017-Nov-14 19:29N 35°02' E 139°39'28 0.7
2017-Nov-13 01:54N 35°30' E 139°44'0 0.0
2017-Nov-13 00:48N 35°30' E 139°44'0 0.0
2017-Nov-13 00:27N 35°30' E 139°44'0 0.0
2017-Nov-12 23:51N 35°30' E 139°44'0 0.1
2017-Nov-12 23:29N 35°30' E 139°44'4 6.5
2017-Nov-12 22:57N 35°27' E 139°43'0 0.0
2017-Nov-12 22:24N 35°27' E 139°43'410.1
2017-Nov-12 22:00N 35°23' E 139°42'710.5
2017-Nov-12 21:18N 35°16' E 139°45'3 0.1
2017-Nov-12 01:19N 35°13' E 139°43'0 0.2
2017-Nov-12 00:55N 35°14' E 139°43'0 0.0
2017-Nov-12 00:25N 35°14' E 139°43'0 0.0
2017-Nov-11 23:07N 35°14' E 139°43'0 0.2
2017-Nov-11 22:53N 35°14' E 139°43'4 1.7
2017-Nov-11 20:37N 35°10' E 139°44'111.3
2017-Nov-11 20:30N 35°09' E 139°43'611.3
2017-Nov-11 19:58N 35°04' E 139°38'1 0.0
2017-Nov-10 06:16N 35°05' E 139°38'411.3
2017-Nov-10 05:54N 35°07' E 139°42'511.6
2017-Nov-10 05:28N 35°12' E 139°44'2 2.6
2017-Nov-10 04:49N 35°14' E 139°43'0 0.0
2017-Nov-10 04:31N 35°14' E 139°43'1 1.3
2017-Nov-10 03:57N 35°13' E 139°44'1110.6
2017-Nov-10 02:55N 35°24' E 139°43'  
Track history (hours):
 
Tides and Currents Weather Stations Pressure Air Temp Water Temp Dewpoint Dewpoint Depression Visibility Wind Speed Wind Dir Waves Ship Positions

68houraimaru

Last reported at 2017-Nov-20 00:30 UTC. Time now 2017-Nov-20 12:03 UTC.
Position N 35°05' E 139°40'.

Length 65 m.

Type: Cargo ship. MMSI: 431300447.

Date/timePositionNaut miles runAvg speedWind from/ knotsBaromVisibWave heightAir tempDewpointWater temp
2017-Nov-20 00:30N 35°05' E 139°40'510.8
2017-Nov-20 00:00N 35°10' E 139°43'4 6.0
2017-Nov-19 23:24N 35°14' E 139°43'0 0.0
2017-Nov-19 22:54N 35°14' E 139°43'0 0.0
2017-Nov-19 22:30N 35°14' E 139°43'0 0.0
2017-Nov-19 22:00N 35°14' E 139°43'0 0.0
2017-Nov-19 21:24N 35°14' E 139°43'0 0.0
2017-Nov-19 20:54N 35°14' E 139°43'0 0.0
2017-Nov-19 20:30N 35°14' E 139°43'0 0.0
2017-Nov-19 20:00N 35°14' E 139°43'0 0.0
2017-Nov-19 19:30N 35°14' E 139°43'0 0.0
2017-Nov-19 19:00N 35°14' E 139°43'0 0.0
2017-Nov-19 18:30N 35°14' E 139°43'0 0.0
2017-Nov-19 17:36N 35°14' E 139°43'0 0.0
2017-Nov-19 17:18N 35°14' E 139°43'0 0.0
2017-Nov-19 17:00N 35°14' E 139°43'0 0.0
2017-Nov-19 16:24N 35°14' E 139°43'0 0.0
2017-Nov-19 16:00N 35°14' E 139°43'0 0.0
2017-Nov-19 15:30N 35°14' E 139°43'0 0.0
2017-Nov-19 14:42N 35°14' E 139°43'0 0.0
2017-Nov-19 14:30N 35°14' E 139°43'0 0.0
2017-Nov-19 14:00N 35°14' E 139°43'0 0.0
2017-Nov-19 13:30N 35°14' E 139°43'0 0.0
2017-Nov-19 12:54N 35°14' E 139°43'0 0.0
2017-Nov-19 12:24N 35°14' E 139°43'0 0.0
2017-Nov-19 12:00N 35°14' E 139°43'0 0.0
2017-Nov-19 11:30N 35°14' E 139°43'0 0.0
2017-Nov-19 11:00N 35°14' E 139°43'0 0.0
2017-Nov-19 10:30N 35°14' E 139°43'0 0.0
2017-Nov-19 10:00N 35°14' E 139°43'0 0.0
2017-Nov-19 09:30N 35°14' E 139°43'0 0.0
2017-Nov-19 09:00N 35°14' E 139°43'0 0.0
2017-Nov-19 08:30N 35°14' E 139°43'0 0.0
2017-Nov-19 08:00N 35°14' E 139°43'0 0.0
2017-Nov-19 07:30N 35°14' E 139°43'0 0.0
2017-Nov-19 06:54N 35°14' E 139°43'0 0.0
2017-Nov-19 06:30N 35°14' E 139°43'0 0.0
2017-Nov-19 06:00N 35°14' E 139°43'0 0.0
2017-Nov-19 05:30N 35°14' E 139°43'0 0.0
2017-Nov-19 04:54N 35°14' E 139°43'0 0.0
2017-Nov-19 04:30N 35°14' E 139°43'0 0.0
2017-Nov-19 03:54N 35°14' E 139°43'0 0.0
2017-Nov-19 03:24N 35°14' E 139°43'0 0.0
2017-Nov-19 03:00N 35°14' E 139°43'0 0.0
2017-Nov-19 02:24N 35°14' E 139°43'0 0.0
2017-Nov-19 01:54N 35°14' E 139°43'0 0.0
2017-Nov-19 01:30N 35°14' E 139°43'1 1.7
2017-Nov-19 00:47N 35°13' E 139°45'2 5.9
2017-Nov-19 00:28N 35°11' E 139°44'3 6.1
2017-Nov-18 23:57N 35°08' E 139°42'3 6.2
2017-Nov-18 23:29N 35°07' E 139°39'2 0.0
2017-Nov-17 13:37N 35°05' E 139°38'111.4
2017-Nov-17 13:30N 35°06' E 139°40'612.2
2017-Nov-17 13:00N 35°11' E 139°45'611.3
2017-Nov-17 12:29N 35°17' E 139°45'811.0
2017-Nov-17 11:44N 35°25' E 139°42'311.3
2017-Nov-17 11:30N 35°27' E 139°43'3 0.5
2017-Nov-17 05:45N 35°30' E 139°42'0 0.0
2017-Nov-17 05:30N 35°30' E 139°42'0 0.6
2017-Nov-17 04:59N 35°29' E 139°43'2 3.6
2017-Nov-17 04:27N 35°28' E 139°43'1 1.7
2017-Nov-17 03:53N 35°27' E 139°43'0 0.0
2017-Nov-17 03:14N 35°27' E 139°43'0 0.0
2017-Nov-17 02:41N 35°27' E 139°43'0 0.0
2017-Nov-17 01:14N 35°27' E 139°43'0 0.0
2017-Nov-17 00:59N 35°27' E 139°43'0 0.8
2017-Nov-17 00:30N 35°26' E 139°43'611.6
2017-Nov-16 23:59N 35°20' E 139°43'1110.8
2017-Nov-16 22:56N 35°09' E 139°46'512.2
2017-Nov-16 22:30N 35°04' E 139°43'611.9
2017-Nov-16 21:59N 34°60' E 139°37'4 0.1
2017-Nov-15 11:19N 35°04' E 139°37'310.3
2017-Nov-15 11:00N 35°06' E 139°40'611.0
2017-Nov-15 10:29N 35°11' E 139°45'611.4
2017-Nov-15 10:00N 35°16' E 139°46'1110.8
2017-Nov-15 08:58N 35°27' E 139°43'3 1.7
2017-Nov-15 06:57N 35°30' E 139°44'3 7.3
2017-Nov-15 06:30N 35°27' E 139°44'5 9.5
2017-Nov-15 05:59N 35°22' E 139°45'910.0
2017-Nov-15 05:06N 35°13' E 139°44'1 1.3
2017-Nov-15 04:42N 35°14' E 139°43'0 0.0
2017-Nov-15 04:30N 35°14' E 139°43'0 0.0
2017-Nov-15 03:54N 35°14' E 139°43'0 0.0
2017-Nov-15 03:18N 35°14' E 139°43'0 1.0
2017-Nov-15 02:55N 35°13' E 139°43'0 0.7
2017-Nov-15 02:28N 35°13' E 139°44'3 6.1
2017-Nov-15 02:00N 35°16' E 139°45'810.1
2017-Nov-15 01:15N 35°22' E 139°41'0 0.0
2017-Nov-15 00:48N 35°22' E 139°41'0 0.0
2017-Nov-15 00:18N 35°22' E 139°41'0 0.0
2017-Nov-14 23:51N 35°22' E 139°41'0 0.0
2017-Nov-14 22:12N 35°22' E 139°41'0 0.0
2017-Nov-14 21:34N 35°22' E 139°41'0 1.2
2017-Nov-14 21:31N 35°22' E 139°41'711.6
2017-Nov-14 20:56N 35°17' E 139°46'711.0
2017-Nov-14 20:19N 35°10' E 139°46'411.9
2017-Nov-14 20:00N 35°06' E 139°45'612.0
2017-Nov-14 19:29N 35°02' E 139°39'28 0.7
2017-Nov-13 01:54N 35°30' E 139°44'0 0.0
2017-Nov-13 00:48N 35°30' E 139°44'0 0.0
2017-Nov-13 00:27N 35°30' E 139°44'0 0.0
2017-Nov-12 23:51N 35°30' E 139°44'0 0.1
2017-Nov-12 23:29N 35°30' E 139°44'4 6.5
2017-Nov-12 22:57N 35°27' E 139°43'0 0.0
2017-Nov-12 22:24N 35°27' E 139°43'410.1
2017-Nov-12 22:00N 35°23' E 139°42'710.5
2017-Nov-12 21:18N 35°16' E 139°45'3 0.1
2017-Nov-12 01:19N 35°13' E 139°43'0 0.2
2017-Nov-12 00:55N 35°14' E 139°43'0 0.0
2017-Nov-12 00:25N 35°14' E 139°43'0 0.0
2017-Nov-11 23:07N 35°14' E 139°43'0 0.2
2017-Nov-11 22:53N 35°14' E 139°43'4 1.7
2017-Nov-11 20:37N 35°10' E 139°44'111.3
2017-Nov-11 20:30N 35°09' E 139°43'611.3
2017-Nov-11 19:58N 35°04' E 139°38'1 0.0
2017-Nov-10 06:16N 35°05' E 139°38'411.3
2017-Nov-10 05:54N 35°07' E 139°42'511.6
2017-Nov-10 05:28N 35°12' E 139°44'2 2.6
2017-Nov-10 04:49N 35°14' E 139°43'0 0.0
2017-Nov-10 04:31N 35°14' E 139°43'1 1.3
2017-Nov-10 03:57N 35°13' E 139°44'1110.6
2017-Nov-10 02:55N 35°24' E 139°43'  

Dump ship's entire track history